sensor_id;sensor_type;location;lat;lon;timestamp;pressure;altitude;pressure_sealevel;temperature;humidity
15817;BME280;8009;50.070;8.232;2022-11-15T00:01:20;99691.66;;;9.69;82.21
15817;BME280;8009;50.070;8.232;2022-11-15T00:03:51;99686.16;;;9.11;84.38
15817;BME280;8009;50.070;8.232;2022-11-15T00:06:19;99680.31;;;9.41;83.31
15817;BME280;8009;50.070;8.232;2022-11-15T00:08:48;99679.31;;;9.42;83.04
15817;BME280;8009;50.070;8.232;2022-11-15T00:11:16;99681.25;;;9.29;83.73
15817;BME280;8009;50.070;8.232;2022-11-15T00:13:47;99675.63;;;8.84;85.16
15817;BME280;8009;50.070;8.232;2022-11-15T00:16:15;99683.16;;;9.16;84.06
15817;BME280;8009;50.070;8.232;2022-11-15T00:18:44;99668.19;;;9.36;83.23
15817;BME280;8009;50.070;8.232;2022-11-15T00:21:13;99674.91;;;9.41;83.35
15817;BME280;8009;50.070;8.232;2022-11-15T00:23:43;99671.63;;;8.90;85.23
15817;BME280;8009;50.070;8.232;2022-11-15T00:26:13;99664.84;;;9.32;83.61
15817;BME280;8009;50.070;8.232;2022-11-15T00:28:42;99665.81;;;8.83;85.25
15817;BME280;8009;50.070;8.232;2022-11-15T00:31:14;99662.25;;;9.31;83.74
15817;BME280;8009;50.070;8.232;2022-11-15T00:33:43;99658.59;;;9.08;84.25
15817;BME280;8009;50.070;8.232;2022-11-15T00:36:11;99652.38;;;9.31;83.77
15817;BME280;8009;50.070;8.232;2022-11-15T00:38:40;99654.88;;;9.57;82.94
15817;BME280;8009;50.070;8.232;2022-11-15T00:41:09;99653.94;;;9.69;82.09
15817;BME280;8009;50.070;8.232;2022-11-15T00:43:37;99646.34;;;9.63;81.94
15817;BME280;8009;50.070;8.232;2022-11-15T00:46:08;99647.84;;;9.78;81.59
15817;BME280;8009;50.070;8.232;2022-11-15T00:48:39;99652.25;;;9.79;81.59
15817;BME280;8009;50.070;8.232;2022-11-15T00:51:08;99646.47;;;9.84;81.66
15817;BME280;8009;50.070;8.232;2022-11-15T00:53:36;99648.22;;;9.85;81.17
15817;BME280;8009;50.070;8.232;2022-11-15T00:56:05;99637.53;;;9.83;81.28
15817;BME280;8009;50.070;8.232;2022-11-15T00:58:33;99638.75;;;9.68;82.63
15817;BME280;8009;50.070;8.232;2022-11-15T01:01:09;99636.88;;;9.57;82.44
15817;BME280;8009;50.070;8.232;2022-11-15T01:03:41;99644.53;;;9.86;81.89
15817;BME280;8009;50.070;8.232;2022-11-15T01:06:10;99641.59;;;9.77;81.62
15817;BME280;8009;50.070;8.232;2022-11-15T01:08:39;99638.66;;;9.81;82.07
15817;BME280;8009;50.070;8.232;2022-11-15T01:11:10;99638.75;;;9.79;82.08
15817;BME280;8009;50.070;8.232;2022-11-15T01:13:39;99638.66;;;9.81;81.62
15817;BME280;8009;50.070;8.232;2022-11-15T01:16:09;99640.69;;;9.31;84.01
15817;BME280;8009;50.070;8.232;2022-11-15T01:18:41;99646.88;;;9.44;83.57
15817;BME280;8009;50.070;8.232;2022-11-15T01:21:13;99643.13;;;9.69;83.04
15817;BME280;8009;50.070;8.232;2022-11-15T01:23:42;99643.06;;;9.82;82.23
15817;BME280;8009;50.070;8.232;2022-11-15T01:26:13;99637.25;;;9.64;83.52
15817;BME280;8009;50.070;8.232;2022-11-15T01:28:42;99636.06;;;9.79;83.16
15817;BME280;8009;50.070;8.232;2022-11-15T01:31:14;99628.38;;;9.97;82.31
15817;BME280;8009;50.070;8.232;2022-11-15T01:33:50;99625.78;;;10.07;81.77
15817;BME280;8009;50.070;8.232;2022-11-15T01:36:32;99624.44;;;9.90;82.28
15817;BME280;8009;50.070;8.232;2022-11-15T01:39:00;99625.69;;;9.97;82.40
15817;BME280;8009;50.070;8.232;2022-11-15T01:41:30;99625.56;;;10.21;81.41
15817;BME280;8009;50.070;8.232;2022-11-15T01:44:31;99614.91;;;10.08;81.86
15817;BME280;8009;50.070;8.232;2022-11-15T01:47:02;99616.75;;;10.08;81.81
15817;BME280;8009;50.070;8.232;2022-11-15T01:49:35;99615.50;;;9.89;82.96
15817;BME280;8009;50.070;8.232;2022-11-15T01:52:09;99608.66;;;10.08;82.61
15817;BME280;8009;50.070;8.232;2022-11-15T01:54:41;99612.69;;;10.02;82.54
15817;BME280;8009;50.070;8.232;2022-11-15T01:57:11;99597.59;;;10.22;81.48
15817;BME280;8009;50.070;8.232;2022-11-15T01:59:43;99605.81;;;10.09;82.35
15817;BME280;8009;50.070;8.232;2022-11-15T02:02:12;99600.03;;;10.14;82.47
15817;BME280;8009;50.070;8.232;2022-11-15T02:04:46;99593.41;;;10.18;82.04
15817;BME280;8009;50.070;8.232;2022-11-15T02:07:17;99589.25;;;10.14;81.97
15817;BME280;8009;50.070;8.232;2022-11-15T02:09:45;99587.78;;;9.87;83.33
15817;BME280;8009;50.070;8.232;2022-11-15T02:12:18;99576.00;;;10.22;82.06
15817;BME280;8009;50.070;8.232;2022-11-15T02:14:50;99578.84;;;9.98;82.96
15817;BME280;8009;50.070;8.232;2022-11-15T02:17:44;99582.38;;;9.98;83.15
15817;BME280;8009;50.070;8.232;2022-11-15T02:20:41;99578.00;;;9.97;82.82
15817;BME280;8009;50.070;8.232;2022-11-15T02:23:41;99572.22;;;10.13;82.45
15817;BME280;8009;50.070;8.232;2022-11-15T02:26:48;99573.06;;;9.80;83.52
15817;BME280;8009;50.070;8.232;2022-11-15T02:29:31;99568.44;;;10.05;82.76
15817;BME280;8009;50.070;8.232;2022-11-15T02:32:10;99577.75;;;10.00;82.91
15817;BME280;8009;50.070;8.232;2022-11-15T02:34:49;99571.84;;;10.07;82.58
15817;BME280;8009;50.070;8.232;2022-11-15T02:37:23;99561.19;;;10.16;82.61
15817;BME280;8009;50.070;8.232;2022-11-15T02:40:05;99553.19;;;10.15;82.64
15817;BME280;8009;50.070;8.232;2022-11-15T02:42:38;99562.19;;;9.93;83.20
15817;BME280;8009;50.070;8.232;2022-11-15T02:45:26;99552.94;;;10.18;83.07
15817;BME280;8009;50.070;8.232;2022-11-15T02:47:59;99555.03;;;10.37;82.38
15817;BME280;8009;50.070;8.232;2022-11-15T02:50:31;99550.16;;;10.31;82.29
15817;BME280;8009;50.070;8.232;2022-11-15T02:53:00;99551.25;;;10.28;82.31
15817;BME280;8009;50.070;8.232;2022-11-15T02:55:31;99560.06;;;10.41;81.72
15817;BME280;8009;50.070;8.232;2022-11-15T02:58:19;99554.31;;;10.23;82.54
15817;BME280;8009;50.070;8.232;2022-11-15T03:00:58;99541.78;;;10.22;82.23
15817;BME280;8009;50.070;8.232;2022-11-15T03:03:39;99550.38;;;10.39;81.99
15817;BME280;8009;50.070;8.232;2022-11-15T03:06:20;99545.22;;;10.24;82.88
15817;BME280;8009;50.070;8.232;2022-11-15T03:09:03;99548.13;;;10.87;79.93
15817;BME280;8009;50.070;8.232;2022-11-15T03:11:37;99550.41;;;10.28;82.64
15817;BME280;8009;50.070;8.232;2022-11-15T03:14:17;99544.13;;;10.49;81.81
15817;BME280;8009;50.070;8.232;2022-11-15T03:16:51;99543.75;;;10.43;81.94
15817;BME280;8009;50.070;8.232;2022-11-15T03:19:29;99542.38;;;10.48;82.09
15817;BME280;8009;50.070;8.232;2022-11-15T03:22:00;99546.91;;;10.48;81.81
15817;BME280;8009;50.070;8.232;2022-11-15T03:24:34;99551.09;;;10.52;81.95
15817;BME280;8009;50.070;8.232;2022-11-15T03:27:06;99552.94;;;10.40;82.53
15817;BME280;8009;50.070;8.232;2022-11-15T03:29:39;99552.22;;;10.49;81.76
15817;BME280;8009;50.070;8.232;2022-11-15T03:32:13;99539.44;;;10.52;82.17
15817;BME280;8009;50.070;8.232;2022-11-15T03:34:49;99550.63;;;10.47;82.08
15817;BME280;8009;50.070;8.232;2022-11-15T03:37:21;99551.09;;;10.41;82.10
15817;BME280;8009;50.070;8.232;2022-11-15T03:39:50;99552.47;;;10.35;82.46
15817;BME280;8009;50.070;8.232;2022-11-15T03:42:22;99537.63;;;10.41;82.06
15817;BME280;8009;50.070;8.232;2022-11-15T03:44:57;99541.69;;;10.35;81.97
15817;BME280;8009;50.070;8.232;2022-11-15T03:47:30;99543.41;;;10.36;82.05
15817;BME280;8009;50.070;8.232;2022-11-15T03:50:07;99546.97;;;10.25;82.80
15817;BME280;8009;50.070;8.232;2022-11-15T03:52:36;99548.88;;;10.89;80.25
15817;BME280;8009;50.070;8.232;2022-11-15T03:55:08;99549.44;;;11.04;79.30
15817;BME280;8009;50.070;8.232;2022-11-15T03:57:37;99541.81;;;10.77;80.32
15817;BME280;8009;50.070;8.232;2022-11-15T04:00:07;99551.31;;;10.49;81.74
15817;BME280;8009;50.070;8.232;2022-11-15T04:02:36;99555.47;;;10.64;81.23
15817;BME280;8009;50.070;8.232;2022-11-15T04:05:07;99546.50;;;10.64;81.34
15817;BME280;8009;50.070;8.232;2022-11-15T04:07:36;99551.06;;;10.63;81.46
15817;BME280;8009;50.070;8.232;2022-11-15T04:10:06;99553.72;;;10.74;80.75
15817;BME280;8009;50.070;8.232;2022-11-15T04:12:36;99557.75;;;10.80;80.42
15817;BME280;8009;50.070;8.232;2022-11-15T04:15:10;99558.78;;;11.21;79.04
15817;BME280;8009;50.070;8.232;2022-11-15T04:17:40;99552.44;;;10.90;80.43
15817;BME280;8009;50.070;8.232;2022-11-15T04:20:15;99547.53;;;11.16;79.42
15817;BME280;8009;50.070;8.232;2022-11-15T04:22:57;99560.09;;;11.06;80.11
15817;BME280;8009;50.070;8.232;2022-11-15T04:25:39;99551.81;;;11.18;79.18
15817;BME280;8009;50.070;8.232;2022-11-15T04:28:07;99544.16;;;11.23;78.85
15817;BME280;8009;50.070;8.232;2022-11-15T04:30:36;99527.81;;;11.25;78.96
15817;BME280;8009;50.070;8.232;2022-11-15T04:33:04;99537.66;;;10.73;80.64
15817;BME280;8009;50.070;8.232;2022-11-15T04:35:35;99535.91;;;10.72;81.19
15817;BME280;8009;50.070;8.232;2022-11-15T04:38:05;99535.53;;;10.33;82.40
15817;BME280;8009;50.070;8.232;2022-11-15T04:40:34;99520.16;;;10.56;81.98
15817;BME280;8009;50.070;8.232;2022-11-15T04:43:03;99512.53;;;11.14;79.54
15817;BME280;8009;50.070;8.232;2022-11-15T04:45:31;99519.47;;;10.75;81.43
15817;BME280;8009;50.070;8.232;2022-11-15T04:48:00;99520.09;;;11.00;80.58
15817;BME280;8009;50.070;8.232;2022-11-15T04:50:28;99520.63;;;10.93;80.45
15817;BME280;8009;50.070;8.232;2022-11-15T04:52:59;99520.09;;;11.20;79.66
15817;BME280;8009;50.070;8.232;2022-11-15T04:55:27;99514.28;;;11.25;79.43
15817;BME280;8009;50.070;8.232;2022-11-15T04:57:59;99508.53;;;11.30;79.32
15817;BME280;8009;50.070;8.232;2022-11-15T05:00:29;99503.91;;;11.00;80.28
15817;BME280;8009;50.070;8.232;2022-11-15T05:02:57;99501.44;;;11.17;79.74
15817;BME280;8009;50.070;8.232;2022-11-15T05:05:40;99493.22;;;11.19;79.65
15817;BME280;8009;50.070;8.232;2022-11-15T05:08:12;99496.44;;;11.34;79.23
15817;BME280;8009;50.070;8.232;2022-11-15T05:10:40;99491.63;;;11.37;79.06
15817;BME280;8009;50.070;8.232;2022-11-15T05:13:08;99487.13;;;11.47;78.81
15817;BME280;8009;50.070;8.232;2022-11-15T05:15:36;99485.69;;;11.43;78.95
15817;BME280;8009;50.070;8.232;2022-11-15T05:18:05;99480.59;;;11.50;78.16
15817;BME280;8009;50.070;8.232;2022-11-15T05:20:33;99476.63;;;11.54;78.09
15817;BME280;8009;50.070;8.232;2022-11-15T05:23:02;99474.81;;;11.34;78.77
15817;BME280;8009;50.070;8.232;2022-11-15T05:25:32;99475.53;;;11.36;78.42
15817;BME280;8009;50.070;8.232;2022-11-15T05:28:01;99479.53;;;11.11;80.03
15817;BME280;8009;50.070;8.232;2022-11-15T05:30:29;99476.31;;;11.47;78.52
15817;BME280;8009;50.070;8.232;2022-11-15T05:32:58;99481.22;;;10.91;80.48
15817;BME280;8009;50.070;8.232;2022-11-15T05:35:31;99477.91;;;11.29;79.19
15817;BME280;8009;50.070;8.232;2022-11-15T05:38:01;99487.69;;;11.41;78.85
15817;BME280;8009;50.070;8.232;2022-11-15T05:40:33;99483.19;;;11.10;80.02
15817;BME280;8009;50.070;8.232;2022-11-15T05:43:03;99486.41;;;11.25;79.41
15817;BME280;8009;50.070;8.232;2022-11-15T05:45:34;99485.09;;;11.40;78.83
15817;BME280;8009;50.070;8.232;2022-11-15T05:48:06;99480.16;;;11.45;78.68
15817;BME280;8009;50.070;8.232;2022-11-15T05:50:36;99489.56;;;11.51;78.48
15817;BME280;8009;50.070;8.232;2022-11-15T05:53:08;99488.53;;;11.00;80.02
15817;BME280;8009;50.070;8.232;2022-11-15T05:55:41;99493.91;;;10.58;82.12
15817;BME280;8009;50.070;8.232;2022-11-15T05:58:10;99494.69;;;10.70;82.53
15817;BME280;8009;50.070;8.232;2022-11-15T06:00:38;99497.34;;;11.02;80.95
15817;BME280;8009;50.070;8.232;2022-11-15T06:03:08;99495.84;;;11.30;79.40
15817;BME280;8009;50.070;8.232;2022-11-15T06:05:36;99503.16;;;11.60;78.31
15817;BME280;8009;50.070;8.232;2022-11-15T06:08:05;99500.22;;;11.52;78.46
15817;BME280;8009;50.070;8.232;2022-11-15T06:10:33;99494.47;;;11.66;78.19
15817;BME280;8009;50.070;8.232;2022-11-15T06:13:04;99486.09;;;11.69;77.92
15817;BME280;8009;50.070;8.232;2022-11-15T06:15:33;99488.28;;;11.76;77.56
15817;BME280;8009;50.070;8.232;2022-11-15T06:18:06;99492.13;;;11.52;78.39
15817;BME280;8009;50.070;8.232;2022-11-15T06:20:36;99481.34;;;11.31;78.63
15817;BME280;8009;50.070;8.232;2022-11-15T06:23:04;99493.41;;;10.85;81.22
15817;BME280;8009;50.070;8.232;2022-11-15T06:25:32;99491.69;;;11.47;79.07
15817;BME280;8009;50.070;8.232;2022-11-15T06:28:03;99485.78;;;11.63;78.15
15817;BME280;8009;50.070;8.232;2022-11-15T06:30:32;99476.97;;;11.70;77.92
15817;BME280;8009;50.070;8.232;2022-11-15T06:33:01;99486.25;;;11.68;77.80
15817;BME280;8009;50.070;8.232;2022-11-15T06:35:32;99488.28;;;11.55;78.48
15817;BME280;8009;50.070;8.232;2022-11-15T06:38:05;99493.41;;;11.27;79.93
15817;BME280;8009;50.070;8.232;2022-11-15T06:40:34;99491.19;;;11.63;78.25
15817;BME280;8009;50.070;8.232;2022-11-15T06:43:06;99500.72;;;11.67;77.97
15817;BME280;8009;50.070;8.232;2022-11-15T06:45:36;99498.13;;;11.56;78.26
15817;BME280;8009;50.070;8.232;2022-11-15T06:48:05;99490.66;;;11.69;78.17
15817;BME280;8009;50.070;8.232;2022-11-15T06:50:34;99481.72;;;11.78;77.38
15817;BME280;8009;50.070;8.232;2022-11-15T06:53:03;99489.81;;;11.78;77.46
15817;BME280;8009;50.070;8.232;2022-11-15T06:55:32;99492.25;;;11.71;77.73
15817;BME280;8009;50.070;8.232;2022-11-15T06:58:01;99498.44;;;11.83;77.65
15817;BME280;8009;50.070;8.232;2022-11-15T07:00:34;99499.88;;;11.87;77.57
15817;BME280;8009;50.070;8.232;2022-11-15T07:03:03;99502.59;;;11.87;77.72
15817;BME280;8009;50.070;8.232;2022-11-15T07:05:32;99494.59;;;11.86;77.94
15817;BME280;8009;50.070;8.232;2022-11-15T07:08:01;99499.56;;;11.90;77.52
15817;BME280;8009;50.070;8.232;2022-11-15T07:10:29;99501.22;;;11.82;77.45
15817;BME280;8009;50.070;8.232;2022-11-15T07:12:58;99506.31;;;11.44;79.34
15817;BME280;8009;50.070;8.232;2022-11-15T07:15:26;99498.41;;;11.53;79.00
15817;BME280;8009;50.070;8.232;2022-11-15T07:18:03;99496.09;;;11.48;79.12
15817;BME280;8009;50.070;8.232;2022-11-15T07:20:31;99492.69;;;11.77;77.87
15817;BME280;8009;50.070;8.232;2022-11-15T07:23:00;99493.94;;;11.73;78.12
15817;BME280;8009;50.070;8.232;2022-11-15T07:25:29;99495.81;;;11.82;77.39
15817;BME280;8009;50.070;8.232;2022-11-15T07:27:58;99486.25;;;11.78;77.68
15817;BME280;8009;50.070;8.232;2022-11-15T07:30:27;99488.22;;;11.97;77.04
15817;BME280;8009;50.070;8.232;2022-11-15T07:32:59;99485.84;;;11.73;77.59
15817;BME280;8009;50.070;8.232;2022-11-15T07:35:29;99487.69;;;11.72;78.07
15817;BME280;8009;50.070;8.232;2022-11-15T07:37:59;99490.56;;;11.80;77.78
15817;BME280;8009;50.070;8.232;2022-11-15T07:40:31;99498.78;;;12.09;76.62
15817;BME280;8009;50.070;8.232;2022-11-15T07:43:00;99509.34;;;12.03;76.83
15817;BME280;8009;50.070;8.232;2022-11-15T07:45:29;99497.97;;;12.18;76.35
15817;BME280;8009;50.070;8.232;2022-11-15T07:48:01;99498.97;;;12.27;76.62
15817;BME280;8009;50.070;8.232;2022-11-15T07:50:29;99498.81;;;12.19;75.35
15817;BME280;8009;50.070;8.232;2022-11-15T07:52:59;99500.16;;;11.94;76.15
15817;BME280;8009;50.070;8.232;2022-11-15T07:55:28;99495.16;;;11.89;77.72
15817;BME280;8009;50.070;8.232;2022-11-15T07:58:00;99500.41;;;12.22;75.65
15817;BME280;8009;50.070;8.232;2022-11-15T08:00:29;99501.44;;;12.40;74.49
15817;BME280;8009;50.070;8.232;2022-11-15T08:03:05;99498.81;;;12.19;75.07
15817;BME280;8009;50.070;8.232;2022-11-15T08:05:35;99499.03;;;11.97;76.34
15817;BME280;8009;50.070;8.232;2022-11-15T08:08:05;99500.22;;;12.04;76.70
15817;BME280;8009;50.070;8.232;2022-11-15T08:10:34;99491.03;;;12.35;75.50
15817;BME280;8009;50.070;8.232;2022-11-15T08:13:04;99489.53;;;12.02;76.11
15817;BME280;8009;50.070;8.232;2022-11-15T08:15:34;99480.47;;;12.32;75.22
15817;BME280;8009;50.070;8.232;2022-11-15T08:18:08;99484.63;;;12.46;74.43
15817;BME280;8009;50.070;8.232;2022-11-15T08:20:37;99481.09;;;11.95;77.06
15817;BME280;8009;50.070;8.232;2022-11-15T08:23:06;99481.31;;;12.13;76.24
15817;BME280;8009;50.070;8.232;2022-11-15T08:25:36;99475.47;;;12.28;75.47
15817;BME280;8009;50.070;8.232;2022-11-15T08:28:10;99466.19;;;12.11;76.72
15817;BME280;8009;50.070;8.232;2022-11-15T08:30:40;99473.31;;;12.02;77.70
15817;BME280;8009;50.070;8.232;2022-11-15T08:33:13;99474.56;;;11.98;76.43
15817;BME280;8009;50.070;8.232;2022-11-15T08:35:42;99479.78;;;11.90;77.34
15817;BME280;8009;50.070;8.232;2022-11-15T08:38:11;99481.34;;;12.33;76.42
15817;BME280;8009;50.070;8.232;2022-11-15T08:40:39;99484.75;;;11.85;78.44
15817;BME280;8009;50.070;8.232;2022-11-15T08:43:08;99484.03;;;12.23;77.10
15817;BME280;8009;50.070;8.232;2022-11-15T08:45:36;99482.66;;;12.48;76.01
15817;BME280;8009;50.070;8.232;2022-11-15T08:48:04;99488.78;;;12.60;75.19
15817;BME280;8009;50.070;8.232;2022-11-15T08:50:35;99473.50;;;12.59;75.48
15817;BME280;8009;50.070;8.232;2022-11-15T08:53:05;99474.69;;;12.56;75.89
15817;BME280;8009;50.070;8.232;2022-11-15T08:55:38;99475.38;;;12.58;75.22
15817;BME280;8009;50.070;8.232;2022-11-15T08:58:07;99472.38;;;12.42;76.31
15817;BME280;8009;50.070;8.232;2022-11-15T09:00:35;99473.50;;;12.39;75.71
15817;BME280;8009;50.070;8.232;2022-11-15T09:03:03;99474.94;;;12.63;75.21
15817;BME280;8009;50.070;8.232;2022-11-15T09:05:35;99479.50;;;12.62;75.12
15817;BME280;8009;50.070;8.232;2022-11-15T09:08:04;99476.91;;;12.22;76.38
15817;BME280;8009;50.070;8.232;2022-11-15T09:10:33;99475.53;;;12.57;75.42
15817;BME280;8009;50.070;8.232;2022-11-15T09:13:02;99468.66;;;12.82;74.73
15817;BME280;8009;50.070;8.232;2022-11-15T09:15:30;99467.25;;;12.87;74.63
15817;BME280;8009;50.070;8.232;2022-11-15T09:17:59;99463.81;;;12.66;75.40
15817;BME280;8009;50.070;8.232;2022-11-15T09:20:27;99465.97;;;12.91;73.96
15817;BME280;8009;50.070;8.232;2022-11-15T09:23:02;99465.84;;;12.83;74.41
15817;BME280;8009;50.070;8.232;2022-11-15T09:25:31;99464.41;;;12.79;74.21
15817;BME280;8009;50.070;8.232;2022-11-15T09:28:00;99464.41;;;12.79;74.90
15817;BME280;8009;50.070;8.232;2022-11-15T09:30:28;99469.56;;;12.82;74.11
15817;BME280;8009;50.070;8.232;2022-11-15T09:32:56;99458.56;;;12.93;74.40
15817;BME280;8009;50.070;8.232;2022-11-15T09:35:25;99464.81;;;13.13;73.31
15817;BME280;8009;50.070;8.232;2022-11-15T09:37:53;99460.53;;;12.91;73.92
15817;BME280;8009;50.070;8.232;2022-11-15T09:40:24;99468.06;;;13.27;72.78
15817;BME280;8009;50.070;8.232;2022-11-15T09:43:05;99454.66;;;13.15;72.93
15817;BME280;8009;50.070;8.232;2022-11-15T09:45:45;99465.38;;;12.39;76.21
15817;BME280;8009;50.070;8.232;2022-11-15T09:48:31;99456.25;;;12.21;76.65
15817;BME280;8009;50.070;8.232;2022-11-15T09:51:04;99445.56;;;12.29;76.41
15817;BME280;8009;50.070;8.232;2022-11-15T09:53:38;99445.72;;;12.37;76.33
15817;BME280;8009;50.070;8.232;2022-11-15T09:56:16;99449.72;;;12.43;76.30
15817;BME280;8009;50.070;8.232;2022-11-15T09:58:53;99447.44;;;12.29;77.12
15817;BME280;8009;50.070;8.232;2022-11-15T10:01:35;99444.56;;;12.40;76.88
15817;BME280;8009;50.070;8.232;2022-11-15T10:04:06;99450.56;;;12.53;76.58
15817;BME280;8009;50.070;8.232;2022-11-15T10:06:38;99444.88;;;12.56;76.56
15817;BME280;8009;50.070;8.232;2022-11-15T10:09:14;99450.03;;;12.59;76.71
15817;BME280;8009;50.070;8.232;2022-11-15T10:11:46;99457.72;;;12.64;76.76
15817;BME280;8009;50.070;8.232;2022-11-15T10:14:17;99454.28;;;12.52;77.29
15817;BME280;8009;50.070;8.232;2022-11-15T10:17:06;99445.84;;;12.55;76.93
15817;BME280;8009;50.070;8.232;2022-11-15T10:19:46;99438.16;;;12.51;77.23
15817;BME280;8009;50.070;8.232;2022-11-15T10:22:24;99438.47;;;12.57;77.33
15817;BME280;8009;50.070;8.232;2022-11-15T10:25:13;99442.72;;;12.50;77.57
15817;BME280;8009;50.070;8.232;2022-11-15T10:27:52;99432.47;;;12.54;77.46
15817;BME280;8009;50.070;8.232;2022-11-15T10:30:21;99437.59;;;12.47;77.67
15817;BME280;8009;50.070;8.232;2022-11-15T10:32:50;99425.34;;;12.53;77.31
15817;BME280;8009;50.070;8.232;2022-11-15T10:35:21;99425.22;;;12.64;77.03
15817;BME280;8009;50.070;8.232;2022-11-15T10:37:50;99410.66;;;12.46;77.61
15817;BME280;8009;50.070;8.232;2022-11-15T10:40:21;99411.94;;;12.61;77.32
15817;BME280;8009;50.070;8.232;2022-11-15T10:43:05;99405.97;;;12.67;77.20
15817;BME280;8009;50.070;8.232;2022-11-15T10:45:34;99389.56;;;12.59;77.35
15817;BME280;8009;50.070;8.232;2022-11-15T10:48:22;99390.00;;;12.64;77.09
15817;BME280;8009;50.070;8.232;2022-11-15T10:50:53;99394.97;;;12.68;76.72
15817;BME280;8009;50.070;8.232;2022-11-15T10:53:33;99381.47;;;12.49;77.25
15817;BME280;8009;50.070;8.232;2022-11-15T10:56:07;99369.63;;;12.50;77.58
15817;BME280;8009;50.070;8.232;2022-11-15T10:58:41;99370.75;;;12.48;77.67
15817;BME280;8009;50.070;8.232;2022-11-15T11:01:14;99356.66;;;12.54;77.63
15817;BME280;8009;50.070;8.232;2022-11-15T11:03:44;99349.09;;;12.67;77.46
15817;BME280;8009;50.070;8.232;2022-11-15T11:06:15;99335.97;;;12.62;77.51
15817;BME280;8009;50.070;8.232;2022-11-15T11:08:56;99334.78;;;12.84;76.56
15817;BME280;8009;50.070;8.232;2022-11-15T11:11:25;99334.34;;;12.89;76.71
15817;BME280;8009;50.070;8.232;2022-11-15T11:14:20;99329.53;;;12.83;77.13
15817;BME280;8009;50.070;8.232;2022-11-15T11:16:55;99330.09;;;12.86;76.91
15817;BME280;8009;50.070;8.232;2022-11-15T11:19:53;99326.63;;;12.94;76.82
15817;BME280;8009;50.070;8.232;2022-11-15T11:22:32;99318.34;;;12.96;76.89
15817;BME280;8009;50.070;8.232;2022-11-15T11:25:11;99317.91;;;13.00;76.89
15817;BME280;8009;50.070;8.232;2022-11-15T11:27:55;99318.22;;;12.87;77.43
15817;BME280;8009;50.070;8.232;2022-11-15T11:30:34;99330.81;;;12.69;77.43
15817;BME280;8009;50.070;8.232;2022-11-15T11:33:12;99331.41;;;12.63;77.75
15817;BME280;8009;50.070;8.232;2022-11-15T11:35:50;99316.22;;;12.89;77.30
15817;BME280;8009;50.070;8.232;2022-11-15T11:38:44;99314.63;;;12.97;76.51
15817;BME280;8009;50.070;8.232;2022-11-15T11:41:27;99325.47;;;12.97;76.62
15817;BME280;8009;50.070;8.232;2022-11-15T11:44:06;99322.00;;;13.14;76.09
15817;BME280;8009;50.070;8.232;2022-11-15T11:46:48;99311.03;;;13.06;76.08
15817;BME280;8009;50.070;8.232;2022-11-15T11:49:21;99311.16;;;13.14;76.06
15817;BME280;8009;50.070;8.232;2022-11-15T11:51:54;99307.78;;;12.92;76.57
15817;BME280;8009;50.070;8.232;2022-11-15T11:54:30;99299.53;;;12.94;76.74
15817;BME280;8009;50.070;8.232;2022-11-15T11:57:03;99298.78;;;13.02;76.61
15817;BME280;8009;50.070;8.232;2022-11-15T11:59:39;99297.59;;;13.14;75.93
15817;BME280;8009;50.070;8.232;2022-11-15T12:02:17;99290.88;;;13.18;75.68
15817;BME280;8009;50.070;8.232;2022-11-15T12:04:50;99283.88;;;13.25;75.58
15817;BME280;8009;50.070;8.232;2022-11-15T12:07:23;99284.00;;;13.24;75.39
15817;BME280;8009;50.070;8.232;2022-11-15T12:09:55;99286.44;;;13.27;75.21
15817;BME280;8009;50.070;8.232;2022-11-15T12:12:31;99281.56;;;13.30;75.23
15817;BME280;8009;50.070;8.232;2022-11-15T12:15:11;99274.44;;;13.20;75.92
15817;BME280;8009;50.070;8.232;2022-11-15T12:17:43;99275.88;;;13.24;75.65
15817;BME280;8009;50.070;8.232;2022-11-15T12:20:17;99275.44;;;13.28;75.40
15817;BME280;8009;50.070;8.232;2022-11-15T12:22:53;99276.75;;;13.24;75.38
15817;BME280;8009;50.070;8.232;2022-11-15T12:25:25;99261.69;;;13.39;75.02
15817;BME280;8009;50.070;8.232;2022-11-15T12:27:59;99264.44;;;13.30;75.07
15817;BME280;8009;50.070;8.232;2022-11-15T12:30:41;99260.34;;;13.26;75.16
15817;BME280;8009;50.070;8.232;2022-11-15T12:33:32;99257.50;;;13.45;74.55
15817;BME280;8009;50.070;8.232;2022-11-15T12:36:04;99253.72;;;13.01;75.45
15817;BME280;8009;50.070;8.232;2022-11-15T12:38:53;99246.34;;;13.21;74.96
15817;BME280;8009;50.070;8.232;2022-11-15T12:41:23;99240.06;;;13.20;74.95
15817;BME280;8009;50.070;8.232;2022-11-15T12:43:52;99234.66;;;13.48;74.25
15817;BME280;8009;50.070;8.232;2022-11-15T12:46:23;99240.75;;;13.32;74.72
15817;BME280;8009;50.070;8.232;2022-11-15T12:49:47;99228.94;;;13.23;75.23
15817;BME280;8009;50.070;8.232;2022-11-15T12:52:16;99229.19;;;13.02;75.89
15817;BME280;8009;50.070;8.232;2022-11-15T12:55:01;99220.91;;;13.04;75.71
15817;BME280;8009;50.070;8.232;2022-11-15T12:57:36;99224.50;;;13.22;75.18
15817;BME280;8009;50.070;8.232;2022-11-15T13:03:19;99196.97;;;13.27;75.48
15817;BME280;8009;50.070;8.232;2022-11-15T13:08:48;99194.75;;;13.40;74.95
15817;BME280;8009;50.070;8.232;2022-11-15T13:17:26;99191.41;;;13.46;74.74
15817;BME280;8009;50.070;8.232;2022-11-15T13:19:59;99183.50;;;13.35;74.94
15817;BME280;8009;50.070;8.232;2022-11-15T13:22:38;99180.34;;;13.39;75.00
15817;BME280;8009;50.070;8.232;2022-11-15T13:28:28;99185.63;;;13.59;74.35
15817;BME280;8009;50.070;8.232;2022-11-15T13:31:02;99176.72;;;13.67;74.40
15817;BME280;8009;50.070;8.232;2022-11-15T13:33:35;99174.13;;;13.65;74.55
15817;BME280;8009;50.070;8.232;2022-11-15T13:36:07;99171.97;;;13.69;74.34
15817;BME280;8009;50.070;8.232;2022-11-15T13:38:43;99169.88;;;13.62;73.76
15817;BME280;8009;50.070;8.232;2022-11-15T13:41:19;99173.22;;;13.56;73.79
15817;BME280;8009;50.070;8.232;2022-11-15T13:43:49;99163.59;;;13.44;74.54
15817;BME280;8009;50.070;8.232;2022-11-15T13:46:19;99166.47;;;13.60;73.93
15817;BME280;8009;50.070;8.232;2022-11-15T13:48:52;99158.50;;;13.59;73.70
15817;BME280;8009;50.070;8.232;2022-11-15T13:51:25;99154.69;;;13.52;73.89
15817;BME280;8009;50.070;8.232;2022-11-15T13:54:01;99155.78;;;13.41;74.54
15817;BME280;8009;50.070;8.232;2022-11-15T13:56:32;99144.38;;;13.37;74.70
15817;BME280;8009;50.070;8.232;2022-11-15T13:59:08;99131.13;;;13.52;74.37